sensor_id;sensor_type;location;lat;lon;timestamp;P1;durP1;ratioP1;P2;durP2;ratioP2
13423;SDS011;6783;57.758;14.922;2023-04-22T03:49:34;2.03;;;1.23;;
13423;SDS011;6783;57.758;14.922;2023-04-22T03:52:02;3.25;;;1.30;;
13423;SDS011;6783;57.758;14.922;2023-04-22T03:54:30;4.35;;;1.20;;
13423;SDS011;6783;57.758;14.922;2023-04-22T03:56:57;2.67;;;1.33;;
13423;SDS011;6783;57.758;14.922;2023-04-22T03:59:24;1.23;;;1.13;;
13423;SDS011;6783;57.758;14.922;2023-04-22T04:01:52;1.67;;;1.17;;
13423;SDS011;6783;57.758;14.922;2023-04-22T04:04:19;2.97;;;1.40;;
13423;SDS011;6783;57.758;14.922;2023-04-22T04:06:49;3.03;;;1.35;;
13423;SDS011;6783;57.758;14.922;2023-04-22T04:09:16;2.72;;;1.60;;
13423;SDS011;6783;57.758;14.922;2023-04-22T04:11:44;1.65;;;1.52;;
13423;SDS011;6783;57.758;14.922;2023-04-22T04:14:11;4.22;;;1.45;;
13423;SDS011;6783;57.758;14.922;2023-04-22T04:16:39;1.35;;;1.25;;
13423;SDS011;6783;57.758;14.922;2023-04-22T04:19:06;1.58;;;1.10;;
13423;SDS011;6783;57.758;14.922;2023-04-22T04:21:33;2.28;;;1.40;;
13423;SDS011;6783;57.758;14.922;2023-04-22T04:24:03;3.42;;;1.35;;
13423;SDS011;6783;57.758;14.922;2023-04-22T04:26:31;1.55;;;1.30;;
13423;SDS011;6783;57.758;14.922;2023-04-22T04:28:58;1.73;;;1.00;;
13423;SDS011;6783;57.758;14.922;2023-04-22T04:31:26;1.30;;;1.10;;
13423;SDS011;6783;57.758;14.922;2023-04-22T04:33:54;1.45;;;1.10;;
13423;SDS011;6783;57.758;14.922;2023-04-22T04:36:22;2.08;;;1.33;;
13423;SDS011;6783;57.758;14.922;2023-04-22T04:38:53;1.30;;;1.15;;
13423;SDS011;6783;57.758;14.922;2023-04-22T04:41:22;1.73;;;1.33;;
13423;SDS011;6783;57.758;14.922;2023-04-22T04:43:51;1.33;;;1.15;;
13423;SDS011;6783;57.758;14.922;2023-04-22T04:46:18;1.25;;;1.15;;
13423;SDS011;6783;57.758;14.922;2023-04-22T04:48:46;1.75;;;1.50;;
13423;SDS011;6783;57.758;14.922;2023-04-22T04:51:15;3.05;;;1.50;;
13423;SDS011;6783;57.758;14.922;2023-04-22T04:53:43;1.98;;;1.27;;
13423;SDS011;6783;57.758;14.922;2023-04-22T04:56:10;1.90;;;1.30;;
13423;SDS011;6783;57.758;14.922;2023-04-22T04:58:39;1.63;;;1.40;;
13423;SDS011;6783;57.758;14.922;2023-04-22T05:01:06;2.30;;;1.33;;
13423;SDS011;6783;57.758;14.922;2023-04-22T05:03:34;2.20;;;1.65;;
13423;SDS011;6783;57.758;14.922;2023-04-22T05:06:01;2.75;;;1.60;;
13423;SDS011;6783;57.758;14.922;2023-04-22T05:08:29;2.72;;;1.45;;
13423;SDS011;6783;57.758;14.922;2023-04-22T05:10:56;2.40;;;1.38;;
13423;SDS011;6783;57.758;14.922;2023-04-22T05:13:24;2.25;;;1.58;;
13423;SDS011;6783;57.758;14.922;2023-04-22T05:15:53;2.05;;;1.50;;
13423;SDS011;6783;57.758;14.922;2023-04-22T05:18:21;2.38;;;1.30;;
13423;SDS011;6783;57.758;14.922;2023-04-22T05:20:48;2.25;;;1.42;;
13423;SDS011;6783;57.758;14.922;2023-04-22T05:23:16;1.30;;;1.08;;
13423;SDS011;6783;57.758;14.922;2023-04-22T05:25:43;3.75;;;1.33;;
13423;SDS011;6783;57.758;14.922;2023-04-22T05:28:10;1.65;;;1.30;;
13423;SDS011;6783;57.758;14.922;2023-04-22T05:30:38;3.80;;;1.40;;
13423;SDS011;6783;57.758;14.922;2023-04-22T05:33:07;2.35;;;1.70;;
13423;SDS011;6783;57.758;14.922;2023-04-22T05:35:40;1.60;;;1.38;;
13423;SDS011;6783;57.758;14.922;2023-04-22T05:38:13;2.03;;;1.30;;
13423;SDS011;6783;57.758;14.922;2023-04-22T05:40:40;1.65;;;1.55;;
13423;SDS011;6783;57.758;14.922;2023-04-22T05:43:07;1.50;;;1.40;;
13423;SDS011;6783;57.758;14.922;2023-04-22T05:45:35;1.60;;;1.30;;
13423;SDS011;6783;57.758;14.922;2023-04-22T05:48:02;1.85;;;1.33;;
13423;SDS011;6783;57.758;14.922;2023-04-22T05:50:31;2.35;;;1.80;;
13423;SDS011;6783;57.758;14.922;2023-04-22T05:52:59;1.65;;;1.55;;
13423;SDS011;6783;57.758;14.922;2023-04-22T05:55:26;2.25;;;1.80;;
13423;SDS011;6783;57.758;14.922;2023-04-22T05:57:53;1.60;;;1.40;;
13423;SDS011;6783;57.758;14.922;2023-04-22T06:00:21;3.05;;;1.60;;
13423;SDS011;6783;57.758;14.922;2023-04-22T06:02:48;3.58;;;1.45;;
13423;SDS011;6783;57.758;14.922;2023-04-22T06:05:16;1.65;;;1.40;;
13423;SDS011;6783;57.758;14.922;2023-04-22T06:07:44;3.50;;;1.70;;
13423;SDS011;6783;57.758;14.922;2023-04-22T06:10:12;2.20;;;1.38;;
13423;SDS011;6783;57.758;14.922;2023-04-22T06:12:39;2.25;;;1.67;;
13423;SDS011;6783;57.758;14.922;2023-04-22T06:15:07;2.45;;;1.30;;
13423;SDS011;6783;57.758;14.922;2023-04-22T06:17:35;1.50;;;1.40;;
13423;SDS011;6783;57.758;14.922;2023-04-22T06:20:03;1.95;;;1.70;;
13423;SDS011;6783;57.758;14.922;2023-04-22T06:22:31;2.03;;;1.60;;
13423;SDS011;6783;57.758;14.922;2023-04-22T06:28:07;4.35;;;1.40;;
13423;SDS011;6783;57.758;14.922;2023-04-22T06:30:34;2.15;;;1.85;;
13423;SDS011;6783;57.758;14.922;2023-04-22T06:33:02;1.35;;;1.20;;
13423;SDS011;6783;57.758;14.922;2023-04-22T06:35:29;3.28;;;1.42;;
13423;SDS011;6783;57.758;14.922;2023-04-22T06:37:57;4.15;;;1.83;;
13423;SDS011;6783;57.758;14.922;2023-04-22T06:40:24;2.03;;;1.83;;
13423;SDS011;6783;57.758;14.922;2023-04-22T06:42:52;3.30;;;1.52;;
13423;SDS011;6783;57.758;14.922;2023-04-22T06:45:21;1.67;;;1.50;;
13423;SDS011;6783;57.758;14.922;2023-04-22T06:47:51;2.97;;;1.90;;
13423;SDS011;6783;57.758;14.922;2023-04-22T06:50:19;1.67;;;1.17;;
13423;SDS011;6783;57.758;14.922;2023-04-22T06:52:46;1.45;;;1.35;;
13423;SDS011;6783;57.758;14.922;2023-04-22T06:55:14;1.85;;;1.23;;
13423;SDS011;6783;57.758;14.922;2023-04-22T06:57:41;1.55;;;1.27;;
13423;SDS011;6783;57.758;14.922;2023-04-22T07:00:09;2.03;;;1.38;;
13423;SDS011;6783;57.758;14.922;2023-04-22T07:02:39;1.70;;;1.40;;
13423;SDS011;6783;57.758;14.922;2023-04-22T07:05:06;1.52;;;1.42;;
13423;SDS011;6783;57.758;14.922;2023-04-22T07:07:34;1.75;;;1.15;;
13423;SDS011;6783;57.758;14.922;2023-04-22T07:10:02;2.47;;;1.20;;
13423;SDS011;6783;57.758;14.922;2023-04-22T07:12:30;4.20;;;1.40;;
13423;SDS011;6783;57.758;14.922;2023-04-22T07:14:57;3.55;;;1.40;;
13423;SDS011;6783;57.758;14.922;2023-04-22T07:17:24;1.55;;;1.38;;
13423;SDS011;6783;57.758;14.922;2023-04-22T07:19:53;1.52;;;1.42;;
13423;SDS011;6783;57.758;14.922;2023-04-22T07:22:21;1.67;;;1.30;;
13423;SDS011;6783;57.758;14.922;2023-04-22T07:24:48;1.98;;;1.55;;
13423;SDS011;6783;57.758;14.922;2023-04-22T07:27:16;2.28;;;1.30;;
13423;SDS011;6783;57.758;14.922;2023-04-22T07:29:43;2.00;;;1.60;;
13423;SDS011;6783;57.758;14.922;2023-04-22T07:32:11;4.20;;;1.40;;
13423;SDS011;6783;57.758;14.922;2023-04-22T07:34:38;1.90;;;1.60;;
13423;SDS011;6783;57.758;14.922;2023-04-22T07:37:07;1.90;;;1.50;;
13423;SDS011;6783;57.758;14.922;2023-04-22T07:39:34;1.92;;;1.20;;
13423;SDS011;6783;57.758;14.922;2023-04-22T07:42:02;2.83;;;1.52;;
13423;SDS011;6783;57.758;14.922;2023-04-22T07:44:31;2.55;;;1.85;;
13423;SDS011;6783;57.758;14.922;2023-04-22T07:46:58;1.50;;;1.20;;
13423;SDS011;6783;57.758;14.922;2023-04-22T07:49:26;1.45;;;1.27;;
13423;SDS011;6783;57.758;14.922;2023-04-22T07:51:53;3.72;;;1.30;;
13423;SDS011;6783;57.758;14.922;2023-04-22T07:54:23;1.73;;;1.63;;
13423;SDS011;6783;57.758;14.922;2023-04-22T07:56:50;1.70;;;1.60;;
13423;SDS011;6783;57.758;14.922;2023-04-22T07:59:18;2.50;;;1.60;;
13423;SDS011;6783;57.758;14.922;2023-04-22T08:01:45;1.77;;;1.40;;
13423;SDS011;6783;57.758;14.922;2023-04-22T08:04:12;2.08;;;1.45;;
13423;SDS011;6783;57.758;14.922;2023-04-22T08:06:40;2.92;;;1.38;;
13423;SDS011;6783;57.758;14.922;2023-04-22T08:09:07;3.10;;;1.80;;
13423;SDS011;6783;57.758;14.922;2023-04-22T08:11:36;2.05;;;1.48;;
13423;SDS011;6783;57.758;14.922;2023-04-22T08:14:04;3.38;;;1.55;;
13423;SDS011;6783;57.758;14.922;2023-04-22T08:16:31;1.98;;;1.52;;
13423;SDS011;6783;57.758;14.922;2023-04-22T08:18:59;3.13;;;1.65;;
13423;SDS011;6783;57.758;14.922;2023-04-22T08:21:26;1.70;;;1.20;;
13423;SDS011;6783;57.758;14.922;2023-04-22T08:23:53;3.83;;;1.60;;
13423;SDS011;6783;57.758;14.922;2023-04-22T08:26:21;2.50;;;1.30;;
13423;SDS011;6783;57.758;14.922;2023-04-22T08:28:50;2.28;;;1.27;;
13423;SDS011;6783;57.758;14.922;2023-04-22T08:31:17;2.33;;;1.30;;
13423;SDS011;6783;57.758;14.922;2023-04-22T08:33:45;2.17;;;1.20;;
13423;SDS011;6783;57.758;14.922;2023-04-22T08:36:12;1.70;;;1.15;;
13423;SDS011;6783;57.758;14.922;2023-04-22T08:38:40;2.17;;;1.20;;
13423;SDS011;6783;57.758;14.922;2023-04-22T08:41:08;1.67;;;1.20;;
13423;SDS011;6783;57.758;14.922;2023-04-22T08:43:36;3.17;;;1.58;;
13423;SDS011;6783;57.758;14.922;2023-04-22T08:46:04;2.17;;;1.48;;
13423;SDS011;6783;57.758;14.922;2023-04-22T08:48:32;4.70;;;1.17;;
13423;SDS011;6783;57.758;14.922;2023-04-22T08:50:59;1.58;;;1.40;;
13423;SDS011;6783;57.758;14.922;2023-04-22T08:53:27;2.40;;;1.20;;
13423;SDS011;6783;57.758;14.922;2023-04-22T08:55:54;3.70;;;1.42;;
13423;SDS011;6783;57.758;14.922;2023-04-22T08:58:22;2.30;;;1.42;;
13423;SDS011;6783;57.758;14.922;2023-04-22T09:00:50;3.65;;;1.20;;
13423;SDS011;6783;57.758;14.922;2023-04-22T09:03:19;1.23;;;1.13;;
13423;SDS011;6783;57.758;14.922;2023-04-22T09:05:47;2.20;;;1.35;;
13423;SDS011;6783;57.758;14.922;2023-04-22T09:08:15;1.30;;;1.20;;
13423;SDS011;6783;57.758;14.922;2023-04-22T09:10:44;3.88;;;1.40;;
13423;SDS011;6783;57.758;14.922;2023-04-22T09:13:12;4.40;;;1.30;;
13423;SDS011;6783;57.758;14.922;2023-04-22T09:15:39;4.88;;;1.30;;
13423;SDS011;6783;57.758;14.922;2023-04-22T09:18:07;1.92;;;1.20;;
13423;SDS011;6783;57.758;14.922;2023-04-22T09:20:36;2.85;;;1.42;;
13423;SDS011;6783;57.758;14.922;2023-04-22T09:23:07;1.40;;;1.10;;
13423;SDS011;6783;57.758;14.922;2023-04-22T09:25:35;2.65;;;1.30;;
13423;SDS011;6783;57.758;14.922;2023-04-22T09:28:04;1.92;;;1.10;;
13423;SDS011;6783;57.758;14.922;2023-04-22T09:30:33;2.85;;;1.00;;
13423;SDS011;6783;57.758;14.922;2023-04-22T09:33:02;2.40;;;1.30;;
13423;SDS011;6783;57.758;14.922;2023-04-22T09:35:31;1.98;;;1.13;;
13423;SDS011;6783;57.758;14.922;2023-04-22T09:38:01;3.08;;;1.08;;
13423;SDS011;6783;57.758;14.922;2023-04-22T09:40:30;1.45;;;1.00;;
13423;SDS011;6783;57.758;14.922;2023-04-22T09:42:59;1.33;;;1.20;;
13423;SDS011;6783;57.758;14.922;2023-04-22T09:45:28;2.20;;;0.85;;
13423;SDS011;6783;57.758;14.922;2023-04-22T09:48:01;2.05;;;1.00;;
13423;SDS011;6783;57.758;14.922;2023-04-22T09:50:32;1.75;;;1.20;;
13423;SDS011;6783;57.758;14.922;2023-04-22T09:53:01;3.22;;;1.10;;
13423;SDS011;6783;57.758;14.922;2023-04-22T09:55:31;1.80;;;1.10;;
13423;SDS011;6783;57.758;14.922;2023-04-22T09:58:05;3.22;;;1.05;;
13423;SDS011;6783;57.758;14.922;2023-04-22T10:00:34;1.67;;;1.08;;
13423;SDS011;6783;57.758;14.922;2023-04-22T10:03:04;2.65;;;1.20;;
13423;SDS011;6783;57.758;14.922;2023-04-22T10:05:32;1.25;;;1.15;;
13423;SDS011;6783;57.758;14.922;2023-04-22T10:08:03;1.65;;;0.85;;
13423;SDS011;6783;57.758;14.922;2023-04-22T10:10:31;2.63;;;1.10;;
13423;SDS011;6783;57.758;14.922;2023-04-22T10:12:59;1.08;;;0.95;;
13423;SDS011;6783;57.758;14.922;2023-04-22T10:15:29;2.03;;;1.10;;
13423;SDS011;6783;57.758;14.922;2023-04-22T10:17:58;1.77;;;0.90;;
13423;SDS011;6783;57.758;14.922;2023-04-22T10:20:26;2.17;;;0.93;;
13423;SDS011;6783;57.758;14.922;2023-04-22T10:22:55;1.58;;;1.13;;
13423;SDS011;6783;57.758;14.922;2023-04-22T10:25:24;3.90;;;1.27;;
13423;SDS011;6783;57.758;14.922;2023-04-22T10:27:53;1.70;;;1.10;;
13423;SDS011;6783;57.758;14.922;2023-04-22T10:30:28;1.75;;;1.02;;
13423;SDS011;6783;57.758;14.922;2023-04-22T10:36:06;1.25;;;1.05;;
13423;SDS011;6783;57.758;14.922;2023-04-22T10:38:41;3.00;;;1.25;;
13423;SDS011;6783;57.758;14.922;2023-04-22T10:41:44;2.60;;;1.08;;
13423;SDS011;6783;57.758;14.922;2023-04-22T10:44:17;2.22;;;0.90;;
13423;SDS011;6783;57.758;14.922;2023-04-22T10:46:58;3.58;;;0.85;;
13423;SDS011;6783;57.758;14.922;2023-04-22T10:49:28;1.75;;;1.17;;
13423;SDS011;6783;57.758;14.922;2023-04-22T10:51:56;1.77;;;1.20;;
13423;SDS011;6783;57.758;14.922;2023-04-22T10:57:34;2.28;;;1.05;;
13423;SDS011;6783;57.758;14.922;2023-04-22T11:00:17;1.73;;;1.15;;
13423;SDS011;6783;57.758;14.922;2023-04-22T11:03:05;2.65;;;1.27;;
13423;SDS011;6783;57.758;14.922;2023-04-22T11:05:40;2.15;;;1.00;;
13423;SDS011;6783;57.758;14.922;2023-04-22T11:08:11;2.00;;;1.10;;
13423;SDS011;6783;57.758;14.922;2023-04-22T11:10:41;1.83;;;1.23;;
13423;SDS011;6783;57.758;14.922;2023-04-22T11:13:11;1.42;;;1.20;;
13423;SDS011;6783;57.758;14.922;2023-04-22T11:15:40;2.17;;;1.95;;
13423;SDS011;6783;57.758;14.922;2023-04-22T11:20:38;1.98;;;1.83;;
13423;SDS011;6783;57.758;14.922;2023-04-22T11:23:06;1.92;;;1.25;;
13423;SDS011;6783;57.758;14.922;2023-04-22T11:25:34;1.35;;;1.00;;
13423;SDS011;6783;57.758;14.922;2023-04-22T11:28:01;1.15;;;0.95;;
13423;SDS011;6783;57.758;14.922;2023-04-22T11:30:30;2.00;;;1.20;;
13423;SDS011;6783;57.758;14.922;2023-04-22T11:32:58;1.17;;;1.08;;
13423;SDS011;6783;57.758;14.922;2023-04-22T11:35:27;1.10;;;1.00;;
13423;SDS011;6783;57.758;14.922;2023-04-22T11:37:57;3.67;;;1.00;;
13423;SDS011;6783;57.758;14.922;2023-04-22T11:40:26;2.00;;;1.10;;
13423;SDS011;6783;57.758;14.922;2023-04-22T11:42:56;3.38;;;1.23;;
13423;SDS011;6783;57.758;14.922;2023-04-22T11:45:25;1.30;;;0.80;;
13423;SDS011;6783;57.758;14.922;2023-04-22T11:47:54;3.05;;;1.17;;
13423;SDS011;6783;57.758;14.922;2023-04-22T11:50:22;2.35;;;1.10;;
13423;SDS011;6783;57.758;14.922;2023-04-22T11:52:51;1.80;;;1.30;;
13423;SDS011;6783;57.758;14.922;2023-04-22T11:55:20;0.73;;;0.70;;
13423;SDS011;6783;57.758;14.922;2023-04-22T11:57:52;2.47;;;2.20;;
13423;SDS011;6783;57.758;14.922;2023-04-22T12:00:20;2.33;;;1.10;;
13423;SDS011;6783;57.758;14.922;2023-04-22T12:02:57;2.28;;;0.90;;
13423;SDS011;6783;57.758;14.922;2023-04-22T12:05:36;2.58;;;1.00;;
13423;SDS011;6783;57.758;14.922;2023-04-22T12:08:07;2.72;;;1.35;;
13423;SDS011;6783;57.758;14.922;2023-04-22T12:10:43;2.15;;;0.90;;
13423;SDS011;6783;57.758;14.922;2023-04-22T12:13:16;1.88;;;1.23;;
13423;SDS011;6783;57.758;14.922;2023-04-22T12:15:45;1.42;;;0.82;;
13423;SDS011;6783;57.758;14.922;2023-04-22T12:18:14;1.33;;;1.00;;
13423;SDS011;6783;57.758;14.922;2023-04-22T12:20:41;0.93;;;0.80;;
13423;SDS011;6783;57.758;14.922;2023-04-22T12:23:12;2.13;;;1.00;;
13423;SDS011;6783;57.758;14.922;2023-04-22T12:25:40;1.42;;;0.90;;
13423;SDS011;6783;57.758;14.922;2023-04-22T12:28:08;1.13;;;1.00;;
13423;SDS011;6783;57.758;14.922;2023-04-22T12:30:37;2.25;;;1.10;;
13423;SDS011;6783;57.758;14.922;2023-04-22T12:33:04;2.05;;;1.02;;
13423;SDS011;6783;57.758;14.922;2023-04-22T12:35:33;1.58;;;1.48;;
13423;SDS011;6783;57.758;14.922;2023-04-22T12:38:01;1.75;;;1.10;;
13423;SDS011;6783;57.758;14.922;2023-04-22T12:40:28;2.38;;;0.90;;
13423;SDS011;6783;57.758;14.922;2023-04-22T12:42:55;3.33;;;1.10;;
13423;SDS011;6783;57.758;14.922;2023-04-22T12:45:23;0.90;;;0.90;;
13423;SDS011;6783;57.758;14.922;2023-04-22T12:47:50;1.85;;;0.93;;
13423;SDS011;6783;57.758;14.922;2023-04-22T12:50:19;0.80;;;0.70;;
13423;SDS011;6783;57.758;14.922;2023-04-22T12:52:48;1.33;;;0.85;;
13423;SDS011;6783;57.758;14.922;2023-04-22T12:55:15;2.17;;;0.82;;
13423;SDS011;6783;57.758;14.922;2023-04-22T12:57:46;2.30;;;1.00;;
13423;SDS011;6783;57.758;14.922;2023-04-22T13:00:15;1.25;;;0.80;;
13423;SDS011;6783;57.758;14.922;2023-04-22T13:02:42;1.45;;;0.95;;
13423;SDS011;6783;57.758;14.922;2023-04-22T13:05:11;1.85;;;0.90;;
13423;SDS011;6783;57.758;14.922;2023-04-22T13:07:39;0.82;;;0.73;;
13423;SDS011;6783;57.758;14.922;2023-04-22T13:10:09;1.73;;;0.88;;
13423;SDS011;6783;57.758;14.922;2023-04-22T13:12:37;0.70;;;0.60;;
13423;SDS011;6783;57.758;14.922;2023-04-22T13:15:05;1.50;;;1.00;;
13423;SDS011;6783;57.758;14.922;2023-04-22T13:17:33;2.40;;;0.90;;
13423;SDS011;6783;57.758;14.922;2023-04-22T13:20:01;1.73;;;0.90;;
13423;SDS011;6783;57.758;14.922;2023-04-22T13:22:30;1.15;;;0.73;;
13423;SDS011;6783;57.758;14.922;2023-04-22T13:24:57;1.38;;;0.80;;
13423;SDS011;6783;57.758;14.922;2023-04-22T13:27:26;2.28;;;1.02;;
13423;SDS011;6783;57.758;14.922;2023-04-22T13:29:54;2.17;;;0.93;;
13423;SDS011;6783;57.758;14.922;2023-04-22T13:32:22;1.27;;;0.95;;
13423;SDS011;6783;57.758;14.922;2023-04-22T13:34:49;3.38;;;1.23;;
13423;SDS011;6783;57.758;14.922;2023-04-22T13:37:17;3.75;;;1.00;;
13423;SDS011;6783;57.758;14.922;2023-04-22T13:39:45;1.17;;;0.90;;
13423;SDS011;6783;57.758;14.922;2023-04-22T13:42:13;1.73;;;0.85;;
13423;SDS011;6783;57.758;14.922;2023-04-22T13:44:42;2.95;;;0.73;;
13423;SDS011;6783;57.758;14.922;2023-04-22T13:47:09;1.98;;;0.80;;
13423;SDS011;6783;57.758;14.922;2023-04-22T13:49:37;2.22;;;1.02;;
13423;SDS011;6783;57.758;14.922;2023-04-22T13:52:05;1.02;;;0.70;;
13423;SDS011;6783;57.758;14.922;2023-04-22T13:54:32;1.13;;;0.70;;
13423;SDS011;6783;57.758;14.922;2023-04-22T13:57:00;1.45;;;0.98;;
13423;SDS011;6783;57.758;14.922;2023-04-22T13:59:27;2.88;;;0.85;;
13423;SDS011;6783;57.758;14.922;2023-04-22T14:01:57;2.63;;;0.90;;
13423;SDS011;6783;57.758;14.922;2023-04-22T14:04:24;2.05;;;0.90;;
13423;SDS011;6783;57.758;14.922;2023-04-22T14:06:52;1.95;;;0.88;;
13423;SDS011;6783;57.758;14.922;2023-04-22T14:09:20;2.80;;;0.82;;
13423;SDS011;6783;57.758;14.922;2023-04-22T14:11:47;2.55;;;0.77;;
13423;SDS011;6783;57.758;14.922;2023-04-22T14:14:15;2.25;;;0.70;;
13423;SDS011;6783;57.758;14.922;2023-04-22T14:16:42;1.73;;;0.73;;
13423;SDS011;6783;57.758;14.922;2023-04-22T14:19:11;1.45;;;0.60;;
13423;SDS011;6783;57.758;14.922;2023-04-22T14:21:39;1.50;;;0.75;;
13423;SDS011;6783;57.758;14.922;2023-04-22T14:24:06;1.27;;;0.57;;
13423;SDS011;6783;57.758;14.922;2023-04-22T14:26:34;1.00;;;0.57;;
13423;SDS011;6783;57.758;14.922;2023-04-22T14:29:01;1.45;;;0.80;;
13423;SDS011;6783;57.758;14.922;2023-04-22T14:31:29;1.65;;;0.65;;
13423;SDS011;6783;57.758;14.922;2023-04-22T14:33:56;3.10;;;0.85;;
13423;SDS011;6783;57.758;14.922;2023-04-22T14:36:25;2.95;;;0.70;;
13423;SDS011;6783;57.758;14.922;2023-04-22T14:38:53;0.93;;;0.65;;
13423;SDS011;6783;57.758;14.922;2023-04-22T14:41:20;1.38;;;1.00;;
13423;SDS011;6783;57.758;14.922;2023-04-22T14:43:47;1.77;;;0.90;;
13423;SDS011;6783;57.758;14.922;2023-04-22T14:46:15;1.05;;;0.70;;
13423;SDS011;6783;57.758;14.922;2023-04-22T14:48:43;0.60;;;0.57;;
13423;SDS011;6783;57.758;14.922;2023-04-22T14:51:10;1.38;;;0.68;;
13423;SDS011;6783;57.758;14.922;2023-04-22T14:53:39;0.90;;;0.65;;
13423;SDS011;6783;57.758;14.922;2023-04-22T14:56:07;1.50;;;0.70;;
13423;SDS011;6783;57.758;14.922;2023-04-22T14:58:36;1.42;;;0.80;;
13423;SDS011;6783;57.758;14.922;2023-04-22T15:01:04;3.03;;;0.60;;
13423;SDS011;6783;57.758;14.922;2023-04-22T15:03:31;0.77;;;0.68;;
13423;SDS011;6783;57.758;14.922;2023-04-22T15:05:59;1.13;;;0.65;;
13423;SDS011;6783;57.758;14.922;2023-04-22T15:08:27;1.35;;;0.68;;
13423;SDS011;6783;57.758;14.922;2023-04-22T15:10:55;1.23;;;0.68;;
13423;SDS011;6783;57.758;14.922;2023-04-22T15:13:23;1.08;;;0.60;;
13423;SDS011;6783;57.758;14.922;2023-04-22T15:15:51;0.50;;;0.50;;
13423;SDS011;6783;57.758;14.922;2023-04-22T15:18:18;2.20;;;0.73;;
13423;SDS011;6783;57.758;14.922;2023-04-22T15:20:46;3.45;;;1.05;;
13423;SDS011;6783;57.758;14.922;2023-04-22T15:23:13;2.05;;;0.60;;
13423;SDS011;6783;57.758;14.922;2023-04-22T15:25:41;0.95;;;0.70;;
13423;SDS011;6783;57.758;14.922;2023-04-22T15:28:09;3.40;;;0.80;;
13423;SDS011;6783;57.758;14.922;2023-04-22T15:30:37;3.13;;;0.70;;
13423;SDS011;6783;57.758;14.922;2023-04-22T15:33:04;1.88;;;0.60;;
13423;SDS011;6783;57.758;14.922;2023-04-22T15:35:32;1.15;;;0.70;;
13423;SDS011;6783;57.758;14.922;2023-04-22T15:37:59;1.35;;;0.98;;
13423;SDS011;6783;57.758;14.922;2023-04-22T15:40:27;1.90;;;0.70;;
13423;SDS011;6783;57.758;14.922;2023-04-22T15:42:54;1.35;;;0.70;;
13423;SDS011;6783;57.758;14.922;2023-04-22T15:45:23;1.80;;;0.75;;
13423;SDS011;6783;57.758;14.922;2023-04-22T15:47:51;0.93;;;0.77;;
13423;SDS011;6783;57.758;14.922;2023-04-22T15:50:19;1.35;;;0.80;;
13423;SDS011;6783;57.758;14.922;2023-04-22T15:52:47;0.80;;;0.60;;
13423;SDS011;6783;57.758;14.922;2023-04-22T15:55:14;0.80;;;0.70;;
13423;SDS011;6783;57.758;14.922;2023-04-22T15:57:42;2.45;;;0.70;;
13423;SDS011;6783;57.758;14.922;2023-04-22T16:00:10;0.88;;;0.77;;
13423;SDS011;6783;57.758;14.922;2023-04-22T16:02:40;0.68;;;0.60;;
13423;SDS011;6783;57.758;14.922;2023-04-22T16:05:07;0.80;;;0.70;;
13423;SDS011;6783;57.758;14.922;2023-04-22T16:07:35;4.70;;;0.80;;
13423;SDS011;6783;57.758;14.922;2023-04-22T16:10:03;1.35;;;0.55;;
13423;SDS011;6783;57.758;14.922;2023-04-22T16:12:31;1.90;;;0.70;;
13423;SDS011;6783;57.758;14.922;2023-04-22T16:14:58;1.73;;;0.80;;
13423;SDS011;6783;57.758;14.922;2023-04-22T16:17:26;0.90;;;0.55;;
13423;SDS011;6783;57.758;14.922;2023-04-22T16:19:55;1.23;;;0.80;;
13423;SDS011;6783;57.758;14.922;2023-04-22T16:22:22;0.80;;;0.80;;
13423;SDS011;6783;57.758;14.922;2023-04-22T16:24:50;1.13;;;0.55;;
13423;SDS011;6783;57.758;14.922;2023-04-22T16:27:17;1.63;;;0.70;;
13423;SDS011;6783;57.758;14.922;2023-04-22T16:29:44;2.65;;;0.88;;
13423;SDS011;6783;57.758;14.922;2023-04-22T16:32:12;0.80;;;0.60;;
13423;SDS011;6783;57.758;14.922;2023-04-22T16:34:39;0.80;;;0.60;;
13423;SDS011;6783;57.758;14.922;2023-04-22T16:37:08;1.30;;;0.70;;
13423;SDS011;6783;57.758;14.922;2023-04-22T16:39:36;1.30;;;0.68;;
13423;SDS011;6783;57.758;14.922;2023-04-22T16:42:03;1.67;;;0.70;;
13423;SDS011;6783;57.758;14.922;2023-04-22T16:44:31;1.17;;;0.52;;
13423;SDS011;6783;57.758;14.922;2023-04-22T16:46:58;0.93;;;0.65;;
13423;SDS011;6783;57.758;14.922;2023-04-22T16:49:25;0.98;;;0.60;;
13423;SDS011;6783;57.758;14.922;2023-04-22T16:51:53;0.93;;;0.63;;
13423;SDS011;6783;57.758;14.922;2023-04-22T16:54:22;1.50;;;0.70;;
13423;SDS011;6783;57.758;14.922;2023-04-22T16:56:49;2.00;;;0.80;;
13423;SDS011;6783;57.758;14.922;2023-04-22T16:59:16;0.63;;;0.60;;
13423;SDS011;6783;57.758;14.922;2023-04-22T17:01:44;1.00;;;0.68;;
13423;SDS011;6783;57.758;14.922;2023-04-22T17:04:11;0.93;;;0.70;;
13423;SDS011;6783;57.758;14.922;2023-04-22T17:06:39;4.03;;;0.60;;
13423;SDS011;6783;57.758;14.922;2023-04-22T17:09:06;0.75;;;0.60;;
13423;SDS011;6783;57.758;14.922;2023-04-22T17:11:35;1.30;;;0.65;;
13423;SDS011;6783;57.758;14.922;2023-04-22T17:14:03;1.10;;;0.60;;
13423;SDS011;6783;57.758;14.922;2023-04-22T17:16:30;1.73;;;0.63;;
13423;SDS011;6783;57.758;14.922;2023-04-22T17:18:57;0.90;;;0.65;;
13423;SDS011;6783;57.758;14.922;2023-04-22T17:21:25;1.40;;;0.80;;
13423;SDS011;6783;57.758;14.922;2023-04-22T17:23:53;0.95;;;0.65;;
13423;SDS011;6783;57.758;14.922;2023-04-22T17:26:22;2.70;;;0.75;;
13423;SDS011;6783;57.758;14.922;2023-04-22T17:28:51;0.75;;;0.63;;
13423;SDS011;6783;57.758;14.922;2023-04-22T17:31:19;1.05;;;0.77;;
13423;SDS011;6783;57.758;14.922;2023-04-22T17:33:47;2.47;;;0.60;;
13423;SDS011;6783;57.758;14.922;2023-04-22T17:36:14;1.60;;;0.90;;
13423;SDS011;6783;57.758;14.922;2023-04-22T17:38:43;2.72;;;0.80;;
13423;SDS011;6783;57.758;14.922;2023-04-22T17:41:10;2.40;;;1.00;;
13423;SDS011;6783;57.758;14.922;2023-04-22T17:43:37;0.80;;;0.75;;
13423;SDS011;6783;57.758;14.922;2023-04-22T17:46:07;2.35;;;0.80;;
13423;SDS011;6783;57.758;14.922;2023-04-22T17:48:34;1.08;;;0.73;;
13423;SDS011;6783;57.758;14.922;2023-04-22T17:51:02;2.22;;;0.70;;
13423;SDS011;6783;57.758;14.922;2023-04-22T17:53:30;1.33;;;0.70;;
13423;SDS011;6783;57.758;14.922;2023-04-22T17:55:58;2.17;;;0.88;;
13423;SDS011;6783;57.758;14.922;2023-04-22T17:58:25;2.55;;;0.60;;
13423;SDS011;6783;57.758;14.922;2023-04-22T18:00:53;3.05;;;0.80;;
13423;SDS011;6783;57.758;14.922;2023-04-22T18:03:23;1.67;;;0.73;;
13423;SDS011;6783;57.758;14.922;2023-04-22T18:05:51;2.25;;;0.73;;
13423;SDS011;6783;57.758;14.922;2023-04-22T18:08:19;1.80;;;0.77;;
13423;SDS011;6783;57.758;14.922;2023-04-22T18:10:46;2.08;;;0.90;;
13423;SDS011;6783;57.758;14.922;2023-04-22T18:13:14;1.10;;;0.80;;
13423;SDS011;6783;57.758;14.922;2023-04-22T18:15:41;2.45;;;0.70;;
13423;SDS011;6783;57.758;14.922;2023-04-22T18:18:09;1.80;;;0.90;;
13423;SDS011;6783;57.758;14.922;2023-04-22T18:20:40;1.17;;;0.90;;
13423;SDS011;6783;57.758;14.922;2023-04-22T18:23:08;2.60;;;0.80;;
13423;SDS011;6783;57.758;14.922;2023-04-22T18:25:36;2.67;;;0.82;;
13423;SDS011;6783;57.758;14.922;2023-04-22T18:28:03;2.58;;;0.98;;
13423;SDS011;6783;57.758;14.922;2023-04-22T18:30:30;4.47;;;0.88;;
13423;SDS011;6783;57.758;14.922;2023-04-22T18:32:58;0.90;;;0.70;;
13423;SDS011;6783;57.758;14.922;2023-04-22T18:35:26;2.03;;;0.90;;
13423;SDS011;6783;57.758;14.922;2023-04-22T18:37:54;0.65;;;0.60;;
13423;SDS011;6783;57.758;14.922;2023-04-22T18:40:22;0.80;;;0.70;;
13423;SDS011;6783;57.758;14.922;2023-04-22T18:42:50;1.55;;;1.00;;
13423;SDS011;6783;57.758;14.922;2023-04-22T18:45:17;2.92;;;1.05;;
13423;SDS011;6783;57.758;14.922;2023-04-22T18:47:46;2.00;;;0.93;;
13423;SDS011;6783;57.758;14.922;2023-04-22T18:50:14;1.67;;;0.77;;
13423;SDS011;6783;57.758;14.922;2023-04-22T18:52:42;2.35;;;0.75;;
13423;SDS011;6783;57.758;14.922;2023-04-22T18:55:11;2.15;;;0.80;;